Terminal Aerodrome Forecast
Issued by NWS

Home | Current Version | Previous Version | Graphics & Text | Print | Product List | Glossary On
Versions: 1 2 3 4 5 6 7 8 9 10 11 12 13 14 15 16 17 18 19 20 21 22 23 24 25 26
000
FTUS43 KBIS 221133
TAFJMS
TAF
KJMS 221133Z 2212/2312 17014KT P6SM VCTS SCT070CB BKN120
     FM221500 18016G24KT P6SM OVC070
     FM222200 18018G26KT P6SM OVC035
     FM230000 18017G25KT P6SM -SHRA VCTS OVC040CB
     FM230300 17014KT 5SM SHRA VCTS BKN035CB
      TEMPO 2303/2306 VRB25G40KT 2SM TSRA BKN015CB OVC040
     FM230800 29006KT P6SM -SHRA OVC015=

USA.gov is the U.S. government's official web portal to all federal, state and local government web resources and services.